EHBK/MST METAR and TAF weather

Enter ICAO airport designator
Station Type Date Time Source
EHBK METAR 2019/08/24 08:55 UTC NOAA

EHBK 240855Z AUTO VRB02KT 9999 NCD 26/14 Q1021 NOSIG


Station Type Date Time Source
EHBK Decoded METAR 2019/08/24 08:55 UTC NOAA

Station name not available
Aug 24, 2019 - 04:55 AM EDT / 2019.08.24 0855 UTC
Wind: Variable at 2 MPH (2 KT):0
Visibility: greater than 7 mile(s):0
Temperature: 78 F (26 C)
Dew Point: 57 F (14 C)
Relative Humidity: 47%
Pressure (altimeter): 30.15 in. Hg (1021 hPa)
ob: EHBK 240855Z AUTO VRB02KT 9999 NCD 26/14 Q1021 NOSIG
cycle: 9

Station Type Date Time Source
EHBK TAF 2019/08/24 06:27 UTC NOAA

TAF EHBK 240441Z 2406/2512 12005KT CAVOK

Example: see airport list